createdAt,value
2018-06-21T00:00:27.276Z,3.20
2018-06-21T00:02:31.174Z,3.00
2018-06-21T00:04:35.700Z,3.30
2018-06-21T00:06:41.874Z,2.63
2018-06-21T00:08:46.706Z,2.63
2018-06-21T00:10:51.223Z,2.97
2018-06-21T00:12:56.975Z,2.70
2018-06-21T00:15:00.914Z,3.53
2018-06-21T00:17:04.769Z,3.23
2018-06-21T00:19:09.018Z,3.13
2018-06-21T00:21:12.871Z,2.80
2018-06-21T00:23:17.414Z,2.80
2018-06-21T00:25:21.753Z,3.20
2018-06-21T00:27:25.768Z,3.67
2018-06-21T00:29:29.714Z,3.50
2018-06-21T00:31:34.053Z,3.30
2018-06-21T00:33:38.657Z,2.93
2018-06-21T00:35:43.489Z,3.20
2018-06-21T00:37:49.459Z,2.77
2018-06-21T00:39:53.577Z,3.50
2018-06-21T00:41:57.546Z,3.00
2018-06-21T00:44:01.702Z,3.30
2018-06-21T00:46:05.725Z,3.47
2018-06-21T00:48:10.533Z,3.07
2018-06-21T00:50:14.888Z,3.47
2018-06-21T00:52:18.811Z,3.33
2018-06-21T00:54:22.829Z,3.70
2018-06-21T00:56:27.559Z,3.60
2018-06-21T00:58:32.252Z,3.70
2018-06-21T01:00:36.265Z,4.17
2018-06-21T01:02:41.496Z,4.03
2018-06-21T01:04:45.419Z,4.33
2018-06-21T01:06:49.322Z,4.43
2018-06-21T01:08:53.179Z,4.63
2018-06-21T01:10:57.784Z,3.93
2018-06-21T01:13:01.705Z,4.13
2018-06-21T01:15:07.226Z,4.20
2018-06-21T01:17:13.498Z,4.83
2018-06-21T01:19:18.836Z,4.30
2018-06-21T01:21:29.306Z,4.50
2018-06-21T01:23:34.655Z,4.10
2018-06-21T01:25:40.381Z,3.63
2018-06-21T01:27:46.427Z,3.83
2018-06-21T01:29:51.485Z,4.53
2018-06-21T01:31:57.775Z,4.53
2018-06-21T01:34:03.504Z,3.93
2018-06-21T01:36:09.200Z,3.40
2018-06-21T01:38:14.042Z,4.37
2018-06-21T01:40:19.623Z,4.27
2018-06-21T01:42:25.024Z,4.03
2018-06-21T01:44:31.769Z,4.10
2018-06-21T01:46:38.162Z,3.90
2018-06-21T01:48:49.382Z,3.93
2018-06-21T01:50:57.588Z,4.10
2018-06-21T01:53:03.913Z,4.30
2018-06-21T01:55:09.145Z,4.57
2018-06-21T01:57:13.707Z,4.13
2018-06-21T01:59:21.962Z,3.93
2018-06-21T02:01:28.026Z,4.30
2018-06-21T02:03:33.299Z,4.00
2018-06-21T02:05:40.704Z,4.23
2018-06-21T02:07:46.735Z,4.00
2018-06-21T02:09:53.068Z,4.00
2018-06-21T02:12:00.602Z,4.20
2018-06-21T02:14:07.225Z,4.07
2018-06-21T02:16:13.508Z,4.00
2018-06-21T02:18:19.001Z,3.93
2018-06-21T02:20:24.271Z,4.60
2018-06-21T02:22:29.499Z,3.90
2018-06-21T02:24:36.124Z,4.67
2018-06-21T02:26:41.098Z,4.30
2018-06-21T02:28:46.693Z,4.00
2018-06-21T02:30:51.417Z,4.70
2018-06-21T02:32:58.547Z,4.47
2018-06-21T02:35:04.773Z,4.30
2018-06-21T02:37:11.339Z,4.20
2018-06-21T02:39:16.334Z,4.13
2018-06-21T02:41:21.489Z,4.43
2018-06-21T02:43:28.470Z,4.73
2018-06-21T02:45:37.100Z,4.27
2018-06-21T02:47:45.152Z,4.33
2018-06-21T02:49:54.254Z,4.63
2018-06-21T02:52:00.694Z,4.40
2018-06-21T02:54:06.851Z,4.67
2018-06-21T02:56:13.100Z,4.33
2018-06-21T02:58:19.330Z,4.70
2018-06-21T03:00:25.749Z,4.07
2018-06-21T03:02:31.339Z,4.57
2018-06-21T03:04:36.152Z,4.23
2018-06-21T03:06:41.617Z,4.40
2018-06-21T03:08:46.532Z,4.83
2018-06-21T03:10:52.484Z,4.80
2018-06-21T03:13:00.908Z,4.60
2018-06-21T03:15:13.500Z,4.93
2018-06-21T03:17:21.114Z,4.83
2018-06-21T03:19:29.044Z,4.50
2018-06-21T03:21:36.099Z,5.00
2018-06-21T03:23:47.944Z,4.87
2018-06-21T03:25:53.951Z,4.23
2018-06-21T03:28:00.743Z,5.30
2018-06-21T03:30:07.170Z,5.67
2018-06-21T03:32:12.759Z,6.10
2018-06-21T03:34:22.459Z,6.00
2018-06-21T03:36:28.607Z,6.40
2018-06-21T03:38:33.989Z,5.80
2018-06-21T03:40:45.942Z,5.93
2018-06-21T03:42:52.378Z,5.67
2018-06-21T03:44:56.614Z,5.40
2018-06-21T03:47:01.527Z,5.63
2018-06-21T03:49:05.492Z,5.10
2018-06-21T03:51:09.558Z,5.87
2018-06-21T03:53:13.787Z,5.30
2018-06-21T03:55:17.755Z,6.00
2018-06-21T03:57:21.715Z,6.17
2018-06-21T03:59:25.807Z,6.10
2018-06-21T04:01:29.693Z,5.87
2018-06-21T04:03:33.189Z,5.73
2018-06-21T04:05:37.314Z,5.80
2018-06-21T04:07:41.227Z,5.90
2018-06-21T04:09:45.230Z,6.27
2018-06-21T04:11:55.142Z,5.70
2018-06-21T04:14:01.932Z,6.80
2018-06-21T04:16:05.939Z,5.57
2018-06-21T04:18:11.170Z,5.13
2018-06-21T04:20:15.185Z,5.80
2018-06-21T04:22:20.518Z,5.03
2018-06-21T04:24:24.490Z,4.03
2018-06-21T04:26:29.552Z,3.73
2018-06-21T04:28:33.067Z,4.13
2018-06-21T04:30:36.612Z,3.87
2018-06-21T04:32:40.535Z,3.73
2018-06-21T04:34:45.450Z,3.90
2018-06-21T04:36:51.400Z,4.10
2018-06-21T04:38:55.286Z,3.60
2018-06-21T04:40:59.166Z,4.30
2018-06-21T04:43:05.430Z,4.40
2018-06-21T04:45:09.350Z,4.03
2018-06-21T04:47:13.310Z,4.20
2018-06-21T04:49:18.391Z,4.67
2018-06-21T04:51:22.335Z,5.20
2018-06-21T04:53:27.305Z,5.43
2018-06-21T04:55:32.194Z,4.80
2018-06-21T04:57:36.183Z,4.57
2018-06-21T04:59:40.125Z,5.37
2018-06-21T05:01:44.285Z,4.90
2018-06-21T05:03:48.404Z,4.77
2018-06-21T05:05:53.720Z,4.83
2018-06-21T05:07:58.044Z,4.77
2018-06-21T05:10:02.596Z,4.17
2018-06-21T05:12:08.436Z,4.77
2018-06-21T05:14:13.482Z,5.20
2018-06-21T05:16:17.414Z,4.60
2018-06-21T05:18:22.502Z,4.83
2018-06-21T05:20:27.131Z,5.30
2018-06-21T05:22:30.986Z,5.47
2018-06-21T05:24:34.871Z,5.97
2018-06-21T05:26:39.718Z,6.47
2018-06-21T05:28:43.676Z,6.60
2018-06-21T05:30:47.709Z,6.80
2018-06-21T05:32:51.978Z,6.47
2018-06-21T05:34:55.901Z,6.23
2018-06-21T05:37:00.537Z,6.40
2018-06-21T05:39:07.382Z,6.37
2018-06-21T05:41:11.494Z,7.10
2018-06-21T05:43:16.465Z,6.90
2018-06-21T05:45:21.215Z,7.63
2018-06-21T05:47:25.135Z,7.10
2018-06-21T05:49:29.082Z,7.10
2018-06-21T05:51:39.390Z,6.93
2018-06-21T05:53:43.390Z,6.90
2018-06-21T05:55:47.274Z,6.97
2018-06-21T05:57:51.418Z,6.30
2018-06-21T05:59:56.429Z,6.60
2018-06-21T06:02:00.928Z,6.17
2018-06-21T06:04:06.048Z,6.73
2018-06-21T06:06:10.374Z,6.00
2018-06-21T06:08:16.402Z,5.67
2018-06-21T06:10:21.688Z,5.07
2018-06-21T06:12:26.505Z,5.33
2018-06-21T06:14:30.467Z,5.10
2018-06-21T06:16:34.640Z,4.83
2018-06-21T06:18:38.631Z,4.60
2018-06-21T06:20:44.246Z,5.20
2018-06-21T06:22:48.531Z,4.53
2018-06-21T06:24:53.484Z,5.30
2018-06-21T06:26:57.325Z,4.70
2018-06-21T06:29:03.665Z,4.70
2018-06-21T06:31:10.836Z,5.77
2018-06-21T06:33:16.058Z,5.33
2018-06-21T06:35:19.921Z,5.23
2018-06-21T06:37:24.831Z,4.87
2018-06-21T06:39:30.424Z,4.80
2018-06-21T06:41:34.593Z,4.83
2018-06-21T06:43:40.033Z,4.80
2018-06-21T06:45:43.885Z,4.40
2018-06-21T06:47:48.209Z,4.53
2018-06-21T06:49:54.553Z,4.20
2018-06-21T06:51:58.373Z,3.90
2018-06-21T06:54:03.801Z,4.40
2018-06-21T06:56:08.583Z,4.63
2018-06-21T06:58:13.325Z,4.17
2018-06-21T07:00:27.514Z,4.30
2018-06-21T07:02:32.189Z,4.63
2018-06-21T07:04:37.420Z,4.50
2018-06-21T07:06:41.377Z,4.10
2018-06-21T07:08:48.243Z,4.60
2018-06-21T07:10:52.682Z,4.37
2018-06-21T07:12:57.083Z,4.83
2018-06-21T07:15:04.474Z,3.77
2018-06-21T07:17:09.873Z,3.43
2018-06-21T07:19:14.310Z,3.53
2018-06-21T07:21:18.197Z,3.70
2018-06-21T07:23:22.741Z,3.90
2018-06-21T07:25:26.730Z,3.83
2018-06-21T07:27:30.812Z,4.13
2018-06-21T07:29:45.894Z,3.77
2018-06-21T07:31:53.182Z,3.43
2018-06-21T07:33:58.417Z,3.43
2018-06-21T07:36:02.434Z,3.80
2018-06-21T07:38:09.629Z,2.90
2018-06-21T07:40:14.630Z,3.40
2018-06-21T07:42:20.034Z,3.33
2018-06-21T07:44:27.919Z,3.17
2018-06-21T07:46:38.173Z,2.97
2018-06-21T07:48:42.882Z,3.23
2018-06-21T07:50:46.713Z,2.80
2018-06-21T07:52:50.605Z,2.97
2018-06-21T07:54:57.243Z,2.60
2018-06-21T07:57:03.446Z,2.60
2018-06-21T07:59:07.341Z,2.10
2018-06-21T08:01:11.974Z,2.63
2018-06-21T08:03:16.381Z,2.70
2018-06-21T08:05:20.322Z,2.70
2018-06-21T08:07:25.021Z,2.70
2018-06-21T08:09:33.390Z,2.77
2018-06-21T08:11:38.771Z,2.60
2018-06-21T08:13:48.417Z,2.73
2018-06-21T08:15:52.736Z,2.53
2018-06-21T08:17:57.396Z,3.00
2018-06-21T08:20:03.765Z,2.67
2018-06-21T08:22:09.768Z,2.60
2018-06-21T08:24:15.681Z,2.97
2018-06-21T08:26:19.537Z,2.50
2018-06-21T08:28:26.162Z,2.40
2018-06-21T08:30:30.419Z,2.47
2018-06-21T08:32:36.121Z,2.80
2018-06-21T08:34:41.623Z,2.47
2018-06-21T08:36:46.472Z,2.47
2018-06-21T08:38:52.206Z,2.50
2018-06-21T08:40:58.052Z,2.80
2018-06-21T08:43:04.487Z,2.13
2018-06-21T08:45:08.838Z,2.20
2018-06-21T08:47:14.363Z,2.47
2018-06-21T08:49:18.229Z,2.70
2018-06-21T08:51:22.158Z,2.60
2018-06-21T08:53:27.452Z,2.57
2018-06-21T08:55:31.351Z,2.40
2018-06-21T08:57:36.635Z,2.90
2018-06-21T08:59:41.416Z,2.80
2018-06-21T09:01:45.284Z,1.90
2018-06-21T09:03:53.609Z,2.13
2018-06-21T09:05:57.032Z,2.47
2018-06-21T09:08:01.883Z,2.40
2018-06-21T09:10:05.850Z,2.40
2018-06-21T09:12:10.617Z,2.20
2018-06-21T09:14:17.794Z,2.00
2018-06-21T09:16:21.938Z,2.00
2018-06-21T09:18:31.287Z,2.10
2018-06-21T09:20:35.305Z,2.07
2018-06-21T09:22:39.237Z,1.87
2018-06-21T09:24:44.300Z,1.90
2018-06-21T09:26:48.541Z,2.27
2018-06-21T09:28:52.457Z,2.00
2018-06-21T09:30:56.476Z,2.30
2018-06-21T09:33:00.571Z,2.07
2018-06-21T09:35:04.554Z,3.03
2018-06-21T09:37:09.329Z,2.33
2018-06-21T09:39:19.223Z,2.70
2018-06-21T09:41:28.342Z,3.60
2018-06-21T09:43:50.299Z,3.30
2018-06-21T09:45:52.873Z,4.07
2018-06-21T09:48:14.178Z,3.50
2018-06-21T09:50:29.212Z,3.30
2018-06-21T09:52:35.307Z,3.83
2018-06-21T09:54:45.547Z,4.70
2018-06-21T09:56:50.621Z,4.23
2018-06-21T09:58:57.026Z,5.00
2018-06-21T10:03:13.621Z,4.00
2018-06-21T10:05:18.281Z,3.37
2018-06-21T10:07:22.151Z,3.63
2018-06-21T10:09:29.329Z,3.07
2018-06-21T10:11:33.325Z,3.03
2018-06-21T10:13:38.281Z,3.50
2018-06-21T10:15:43.054Z,4.20
2018-06-21T10:17:47.510Z,4.10
2018-06-21T10:19:54.181Z,3.97
2018-06-21T10:21:58.263Z,3.07
2018-06-21T10:24:07.394Z,3.50
2018-06-21T10:26:18.346Z,3.50
2018-06-21T10:28:24.525Z,4.00
2018-06-21T10:30:28.570Z,4.57
2018-06-21T10:32:33.169Z,4.00
2018-06-21T10:34:38.394Z,4.50
2018-06-21T10:36:42.344Z,4.97
2018-06-21T10:38:47.068Z,4.80
2018-06-21T10:40:51.393Z,4.70
2018-06-21T10:42:55.553Z,5.00
2018-06-21T10:45:00.162Z,4.97
2018-06-21T10:47:05.489Z,5.00
2018-06-21T10:49:11.622Z,5.10
2018-06-21T10:51:16.443Z,4.90
2018-06-21T10:53:20.393Z,5.60
2018-06-21T10:55:31.405Z,5.17
2018-06-21T10:57:36.277Z,5.27
2018-06-21T10:59:42.623Z,5.13
2018-06-21T11:01:50.271Z,5.23
2018-06-21T11:03:55.603Z,5.10
2018-06-21T11:06:01.521Z,5.53
2018-06-21T11:08:09.396Z,5.77
2018-06-21T11:10:15.554Z,5.70
2018-06-21T11:12:20.505Z,5.03
2018-06-21T11:14:25.808Z,5.73
2018-06-21T11:16:29.860Z,4.80
2018-06-21T11:18:41.511Z,5.10
2018-06-21T11:20:46.753Z,5.07
2018-06-21T11:22:51.368Z,4.67
2018-06-21T11:24:56.448Z,4.43
2018-06-21T11:27:01.797Z,4.67
2018-06-21T11:29:07.211Z,4.60
2018-06-21T11:31:16.388Z,4.37
2018-06-21T11:33:23.294Z,4.80
2018-06-21T11:35:31.093Z,6.13
2018-06-21T11:37:39.160Z,5.03
2018-06-21T11:40:01.615Z,5.00
2018-06-21T11:42:07.430Z,4.90
2018-06-21T11:44:15.224Z,4.77
2018-06-21T11:46:24.304Z,4.50
2018-06-21T11:48:29.515Z,4.97
2018-06-21T11:50:35.776Z,4.40
2018-06-21T11:52:43.922Z,4.53
2018-06-21T11:54:51.635Z,3.83
2018-06-21T11:56:59.269Z,4.10
2018-06-21T11:59:05.248Z,3.60
2018-06-21T12:01:18.380Z,3.30
2018-06-21T12:03:30.398Z,3.90
2018-06-21T12:05:36.630Z,3.00
2018-06-21T12:07:43.182Z,3.53
2018-06-21T12:09:51.098Z,2.40
2018-06-21T12:11:55.885Z,2.43
2018-06-21T12:14:07.777Z,1.93
2018-06-21T12:16:14.513Z,2.10
2018-06-21T12:18:21.705Z,2.37
2018-06-21T12:20:26.155Z,1.90
2018-06-21T12:22:30.113Z,2.20
2018-06-21T12:24:34.112Z,2.10
2018-06-21T12:26:38.023Z,1.80
2018-06-21T12:28:44.359Z,2.10
2018-06-21T12:30:49.408Z,2.30
2018-06-21T12:32:55.168Z,2.13
2018-06-21T12:34:59.670Z,2.07
2018-06-21T12:37:05.206Z,2.03
2018-06-21T12:39:14.092Z,1.60
2018-06-21T12:41:19.114Z,1.80
2018-06-21T12:43:24.990Z,1.40
2018-06-21T12:45:29.653Z,1.43
2018-06-21T12:47:34.359Z,1.87
2018-06-21T12:49:41.770Z,1.60
2018-06-21T12:51:46.286Z,1.87
2018-06-21T12:53:51.329Z,1.90
2018-06-21T12:55:55.824Z,1.80
2018-06-21T12:58:04.645Z,1.97
2018-06-21T13:00:09.057Z,1.60
2018-06-21T13:02:14.226Z,2.10
2018-06-21T13:04:23.672Z,1.90
2018-06-21T13:06:28.615Z,1.97
2018-06-21T13:08:45.646Z,2.13
2018-06-21T13:11:02.428Z,2.10
2018-06-21T13:13:20.030Z,1.90
2018-06-21T13:15:28.679Z,2.00
2018-06-21T13:17:32.684Z,1.33
2018-06-21T13:19:36.666Z,1.80
2018-06-21T13:21:41.893Z,1.47
2018-06-21T13:23:48.785Z,1.80
2018-06-21T13:25:53.822Z,1.73
2018-06-21T13:27:59.545Z,1.90
2018-06-21T13:30:07.658Z,1.90
2018-06-21T13:32:13.115Z,2.40
2018-06-21T13:34:18.837Z,2.07
2018-06-21T13:36:27.279Z,1.93
2018-06-21T13:38:38.073Z,1.60
2018-06-21T13:40:44.862Z,1.77
2018-06-21T13:42:49.240Z,2.03
2018-06-21T13:44:54.529Z,2.37
2018-06-21T13:46:59.261Z,1.70
2018-06-21T13:49:04.682Z,1.50
2018-06-21T13:51:11.801Z,1.67
2018-06-21T13:53:17.214Z,1.83
2018-06-21T13:55:23.504Z,2.08
2018-06-21T13:57:29.250Z,1.37
2018-06-21T13:59:37.228Z,1.50
2018-06-21T14:01:48.347Z,1.93
2018-06-21T14:03:54.509Z,1.73
2018-06-21T14:06:00.093Z,1.87
2018-06-21T14:08:04.488Z,1.57
2018-06-21T14:10:10.713Z,1.50
2018-06-21T14:12:17.882Z,1.60
2018-06-21T14:14:27.549Z,1.50
2018-06-21T14:16:34.760Z,1.90
2018-06-21T14:18:39.597Z,1.93
2018-06-21T14:20:50.138Z,1.70
2018-06-21T14:22:57.604Z,1.13
2018-06-21T14:25:01.760Z,1.40
2018-06-21T14:27:09.857Z,1.90
2018-06-21T14:29:14.753Z,1.73
2018-06-21T14:31:22.869Z,1.97
2018-06-21T14:33:28.538Z,1.77
2018-06-21T14:35:32.480Z,2.00
2018-06-21T14:37:37.727Z,1.53
2018-06-21T14:39:44.395Z,1.90
2018-06-21T14:41:48.437Z,2.10
2018-06-21T14:43:52.298Z,1.50
2018-06-21T14:45:57.957Z,2.10
2018-06-21T14:48:02.891Z,2.00
2018-06-21T14:50:12.502Z,1.92
2018-06-21T14:52:17.765Z,1.95
2018-06-21T14:54:22.559Z,1.80
2018-06-21T14:56:30.256Z,1.92
2018-06-21T14:58:34.697Z,2.10
2018-06-21T15:00:40.135Z,1.95
2018-06-21T15:02:45.391Z,2.12
2018-06-21T15:04:50.933Z,1.80
2018-06-21T15:06:55.749Z,2.10
2018-06-21T15:08:59.857Z,2.02
2018-06-21T15:11:04.251Z,1.17
2018-06-21T15:13:08.523Z,1.63
2018-06-21T15:15:27.430Z,1.27
2018-06-21T15:17:31.619Z,1.80
2018-06-21T15:19:37.293Z,1.43
2018-06-21T15:21:42.213Z,1.52
2018-06-21T15:23:47.049Z,1.50
2018-06-21T15:25:53.415Z,1.30
2018-06-21T15:27:59.390Z,1.80
2018-06-21T15:30:06.866Z,1.67
2018-06-21T15:32:13.252Z,1.55
2018-06-21T15:34:18.189Z,1.70
2018-06-21T15:36:24.033Z,1.60
2018-06-21T15:38:34.678Z,1.67
2018-06-21T15:40:39.470Z,1.52
2018-06-21T15:42:44.881Z,1.40
2018-06-21T15:44:50.403Z,1.52
2018-06-21T15:46:56.361Z,2.08
2018-06-21T15:49:00.445Z,1.40
2018-06-21T15:51:05.605Z,1.32
2018-06-21T15:53:10.841Z,1.50
2018-06-21T15:55:16.954Z,1.80
2018-06-21T15:57:25.588Z,1.50
2018-06-21T15:59:30.434Z,1.87
2018-06-21T16:01:40.031Z,1.60
2018-06-21T16:03:44.937Z,2.00
2018-06-21T16:05:51.433Z,1.77
2018-06-21T16:07:55.718Z,1.63
2018-06-21T16:10:01.413Z,1.63
2018-06-21T16:12:06.896Z,1.30
2018-06-21T16:14:14.514Z,1.33
2018-06-21T16:16:21.241Z,1.80
2018-06-21T16:18:26.739Z,1.27
2018-06-21T16:20:31.876Z,1.73
2018-06-21T16:22:36.542Z,1.30
2018-06-21T16:24:42.087Z,1.60
2018-06-21T16:26:51.523Z,1.40
2018-06-21T16:28:58.233Z,1.53
2018-06-21T16:31:02.276Z,1.20
2018-06-21T16:33:07.716Z,1.27
2018-06-21T16:35:11.661Z,1.30
2018-06-21T16:37:16.924Z,1.30
2018-06-21T16:39:21.276Z,1.27
2018-06-21T16:41:28.696Z,1.60
2018-06-21T16:43:32.926Z,1.77
2018-06-21T16:45:37.955Z,1.30
2018-06-21T16:47:43.198Z,1.60
2018-06-21T16:49:47.734Z,1.87
2018-06-21T16:51:54.373Z,1.60
2018-06-21T16:54:08.268Z,2.00
2018-06-21T16:56:16.883Z,1.77
2018-06-21T16:58:25.866Z,1.40
2018-06-21T17:00:35.464Z,1.90
2018-06-21T17:02:39.457Z,1.60
2018-06-21T17:04:45.279Z,1.90
2018-06-21T17:06:50.561Z,1.70
2018-06-21T17:08:54.595Z,1.73
2018-06-21T17:11:00.339Z,1.70
2018-06-21T17:13:04.262Z,1.80
2018-06-21T17:15:14.019Z,1.90
2018-06-21T17:17:19.783Z,1.90
2018-06-21T17:19:23.754Z,1.90
2018-06-21T17:21:28.324Z,1.57
2018-06-21T17:23:34.481Z,1.50
2018-06-21T17:25:38.448Z,2.37
2018-06-21T17:27:43.326Z,1.70
2018-06-21T17:29:49.071Z,1.83
2018-06-21T17:31:53.279Z,1.33
2018-06-21T17:33:57.146Z,1.90
2018-06-21T17:36:04.024Z,1.53
2018-06-21T17:38:08.827Z,1.90
2018-06-21T17:40:12.845Z,1.70
2018-06-21T17:42:18.329Z,2.07
2018-06-21T17:44:35.472Z,2.10
2018-06-21T17:46:41.554Z,1.63
2018-06-21T17:48:45.687Z,1.70
2018-06-21T17:50:49.814Z,1.73
2018-06-21T17:52:53.832Z,2.00
2018-06-21T17:55:02.347Z,2.10
2018-06-21T17:57:06.232Z,1.83
2018-06-21T17:59:10.980Z,1.70
2018-06-21T18:01:16.346Z,1.93
2018-06-21T18:03:20.319Z,1.60
2018-06-21T18:05:24.921Z,1.40
2018-06-21T18:07:37.761Z,2.23
2018-06-21T18:09:41.733Z,1.67
2018-06-21T18:11:46.193Z,1.63
2018-06-21T18:13:52.970Z,1.63
2018-06-21T18:15:59.740Z,1.93
2018-06-21T18:18:05.697Z,1.90
2018-06-21T18:20:09.681Z,1.50
2018-06-21T18:22:15.040Z,1.70
2018-06-21T18:24:20.428Z,1.90
2018-06-21T18:27:31.791Z,1.70
2018-06-21T18:29:36.653Z,1.80
2018-06-21T18:31:47.528Z,1.70
2018-06-21T18:33:51.561Z,1.80
2018-06-21T18:35:57.169Z,2.03
2018-06-21T18:38:02.338Z,1.90
2018-06-21T18:40:06.320Z,1.73
2018-06-21T18:42:10.204Z,2.20
2018-06-21T18:44:16.803Z,1.83
2018-06-21T18:46:21.123Z,1.80
2018-06-21T18:48:25.014Z,2.27
2018-06-21T18:50:29.365Z,2.07
2018-06-21T18:52:33.311Z,2.03
2018-06-21T18:54:37.957Z,2.10
2018-06-21T18:56:42.670Z,1.90
2018-06-21T18:58:47.265Z,2.10
2018-06-21T19:03:07.915Z,2.23
2018-06-21T19:05:14.074Z,1.97
2018-06-21T19:07:27.273Z,1.70
2018-06-21T19:09:38.362Z,2.00
2018-06-21T19:11:48.269Z,1.83
2018-06-21T19:13:52.696Z,1.93
2018-06-21T19:15:57.471Z,1.97
2018-06-21T19:18:24.043Z,1.80
2018-06-21T19:20:31.698Z,1.80
2018-06-21T19:22:37.731Z,1.80
2018-06-21T19:24:42.271Z,1.80
2018-06-21T19:26:48.730Z,1.73
2018-06-21T19:28:55.956Z,1.60
2018-06-21T19:31:01.711Z,1.60
2018-06-21T19:33:15.720Z,2.40
2018-06-21T19:35:23.129Z,2.00
2018-06-21T19:37:27.807Z,1.83
2018-06-21T19:39:32.445Z,1.80
2018-06-21T19:41:44.824Z,1.97
2018-06-21T19:43:57.293Z,1.63
2018-06-21T19:46:02.285Z,1.90
2018-06-21T19:48:11.728Z,2.27
2018-06-21T19:50:20.554Z,1.70
2018-06-21T19:52:25.336Z,1.87
2018-06-21T19:54:30.625Z,1.80
2018-06-21T19:56:36.075Z,1.87
2018-06-21T19:58:42.817Z,1.70
2018-06-21T20:00:48.723Z,1.50
2018-06-21T20:02:58.877Z,2.10
2018-06-21T20:05:05.022Z,1.60
2018-06-21T20:07:10.184Z,1.73
2018-06-21T20:09:16.635Z,2.03
2018-06-21T20:11:27.144Z,1.90
2018-06-21T20:13:44.412Z,1.60
2018-06-21T20:15:54.662Z,2.07
2018-06-21T20:18:02.890Z,1.73
2018-06-21T20:20:13.596Z,1.37
2018-06-21T20:22:17.199Z,1.60
2018-06-21T20:24:23.189Z,1.87
2018-06-21T20:26:33.517Z,1.50
2018-06-21T20:28:44.559Z,2.00
2018-06-21T20:30:51.613Z,1.60
2018-06-21T20:32:57.701Z,1.53
2018-06-21T20:35:03.516Z,2.00
2018-06-21T20:37:17.987Z,1.80
2018-06-21T20:39:27.647Z,1.70
2018-06-21T20:41:33.137Z,1.60
2018-06-21T20:43:42.798Z,1.60
2018-06-21T20:45:49.776Z,1.70
2018-06-21T20:47:55.859Z,1.40
2018-06-21T20:50:02.302Z,1.37
2018-06-21T20:52:15.601Z,1.80
2018-06-21T20:54:22.625Z,1.57
2018-06-21T20:56:28.310Z,1.70
2018-06-21T20:58:34.749Z,1.63
2018-06-21T21:00:38.646Z,1.43
2018-06-21T21:02:47.852Z,1.97
2018-06-21T21:05:24.414Z,1.87
2018-06-21T21:07:31.288Z,1.70
2018-06-21T21:09:37.052Z,1.67
2018-06-21T21:11:43.259Z,2.10
2018-06-21T21:13:50.252Z,1.70
2018-06-21T21:16:01.846Z,1.43
2018-06-21T21:18:08.149Z,1.93
2018-06-21T21:20:14.484Z,1.80
2018-06-21T21:22:25.732Z,1.43
2018-06-21T21:24:30.716Z,1.40
2018-06-21T21:26:35.294Z,1.60
2018-06-21T21:28:42.361Z,1.73
2018-06-21T21:30:47.929Z,1.70
2018-06-21T21:33:07.327Z,1.80
2018-06-21T21:35:15.213Z,1.83
2018-06-21T21:37:27.385Z,1.70
2018-06-21T21:39:31.336Z,1.80
2018-06-21T21:41:37.621Z,1.80
2018-06-21T21:43:42.553Z,2.00
2018-06-21T21:45:48.633Z,1.90
2018-06-21T21:47:54.746Z,1.80
2018-06-21T21:50:01.311Z,1.77
2018-06-21T21:52:10.337Z,2.00
2018-06-21T21:54:15.273Z,1.40
2018-06-21T21:56:20.266Z,1.90
2018-06-21T21:58:24.477Z,1.47
2018-06-21T22:00:59.845Z,1.93
2018-06-21T22:03:07.704Z,1.93
2018-06-21T22:05:17.457Z,1.90
2018-06-21T22:07:24.338Z,1.93
2018-06-21T22:09:29.260Z,1.90
2018-06-21T22:11:38.067Z,2.37
2018-06-21T22:13:43.765Z,1.87
2018-06-21T22:15:48.569Z,1.97
2018-06-21T22:17:53.958Z,2.13
2018-06-21T22:19:59.204Z,1.77
2018-06-21T22:22:04.250Z,1.93
2018-06-21T22:24:08.098Z,1.90
2018-06-21T22:26:17.332Z,1.73
2018-06-21T22:28:25.343Z,1.90
2018-06-21T22:30:30.277Z,2.63
2018-06-21T22:32:36.094Z,1.50
2018-06-21T22:34:41.504Z,1.80
2018-06-21T22:36:52.735Z,1.90
2018-06-21T22:43:47.283Z,2.17
2018-06-21T22:45:56.354Z,1.83
2018-06-21T22:48:03.249Z,1.90
2018-06-21T22:50:08.606Z,2.00
2018-06-21T22:52:19.772Z,2.00
2018-06-21T22:54:23.787Z,1.60
2018-06-21T22:56:29.210Z,1.67
2018-06-21T22:58:35.684Z,2.03
2018-06-21T23:00:39.185Z,1.93
2018-06-21T23:02:44.251Z,1.70
2018-06-21T23:04:49.700Z,2.17
2018-06-21T23:06:55.243Z,1.97
2018-06-21T23:08:59.874Z,1.60
2018-06-21T23:11:05.110Z,2.03
2018-06-21T23:13:12.727Z,1.80
2018-06-21T23:15:18.222Z,1.90
2018-06-21T23:17:33.140Z,2.13
2018-06-21T23:19:40.877Z,1.93
2018-06-21T23:21:45.349Z,1.83
2018-06-21T23:23:50.710Z,2.30
2018-06-21T23:25:57.124Z,1.80
2018-06-21T23:28:03.382Z,2.43
2018-06-21T23:30:10.785Z,2.03
2018-06-21T23:32:16.679Z,1.77
2018-06-21T23:34:23.084Z,2.20
2018-06-21T23:36:28.334Z,1.97
2018-06-21T23:38:34.024Z,2.33
2018-06-21T23:40:39.928Z,2.10
2018-06-21T23:42:45.170Z,2.23
2018-06-21T23:44:49.718Z,2.20
2018-06-21T23:46:56.151Z,2.07
2018-06-21T23:49:00.387Z,2.40
2018-06-21T23:51:04.619Z,2.67
2018-06-21T23:53:09.200Z,2.30
2018-06-21T23:55:21.778Z,2.27
2018-06-21T23:57:26.654Z,2.07
2018-06-21T23:59:32.380Z,2.23
